Terminal Aerodrome Forecast
Issued by NWS

Home | Current Version | Previous Version | Text Only | Print | Product List | Glossary On
Versions: 1 2 3 4 5 6 7 8 9 10 11 12 13 14 15 16 17
000
FTUS43 KMQT 262338
TAFIWD
TAF
KIWD 262338Z 2700/2724 01005KT 3SM -SHRA BR OVC008
      TEMPO 2700/2701 P6SM NSW SCT008 BKN020
     FM270400 33004KT 2SM -SHRA BR OVC004
     FM271400 27009KT P6SM SCT040
     FM271900 29012KT P6SM VCSH BKN060
      AMD LTD TO CLD VIS AND WIND=

USA.gov is the U.S. government's official web portal to all federal, state and local government web resources and services.